Thunder radar more information blitzortung!


Radar de pluja more information rain snow radar


Visita la nostra xarxa de llocs de meteo:

Template documentation
and downloads

And another site



No particular awareness of the weather is required.    There are no Weather-warnings

Pagina Historial Weather Underground text

Diari Resum May 30, 2017 Unitats:  Imperial    Mètric   Tant
« Previous Dia
SegĂźent Dia »
Diari Setmana Mensual Anual Personalitzada
  Maxima: Minima: Media:
Temperatura: TemperatureC °F 15.3 °F 19.5 °F
Punt de rosada: DewpointC °F 7.6 °F 10.1 °F
Humitat: Humidity % 43 % 55 %
Wind Speed: WindSpeedKMH mph 0.0 mph 5.3 mph
RĂ fegues de vent: WindSpeedGustKMH mph - -
Vent:- - East
Pression baro: PressurehPa in 1013.8 in -
Precipitacions: 1.0 in    
Historical Graphs
 
 
Dades de taula per May 30, 2017
Temps Temperatura Punt de rosada Pression baro Vent Wind Speed RĂ fegues de vent Humitat Rainfall Rate (Hourly)
TemperatureC °F DewpointC °F PressurehPa in Calm     Humidity % HourlyPrecipMM in
00:00 19.9 °F 7.6 °F 1014.8 in NE 3.7 mph   45 % 0.0 in
00:05 16.3 °F 8.0 °F 1013.8 in WSW 1.6 mph 3.2 mph 58 % 0.0 in
00:15 16.5 °F 8.2 °F 1013.8 in Calm   3.2 mph 58 % 0.0 in
00:25 16.5 °F 8.2 °F 1013.8 in Calm     58 % 0.0 in
00:35 16.3 °F 8.0 °F 1013.8 in Calm   1.6 mph 58 % 0.0 in
00:45 16.5 °F 8.4 °F 1014.8 in WNW 1.6 mph 1.6 mph 59 % 0.0 in
00:55 16.5 °F 8.4 °F 1014.8 in Calm     59 % 0.0 in
01:05 16.5 °F 8.4 °F 1014.8 in NNE 1.6 mph 3.2 mph 59 % 0.0 in
01:15 16.4 °F 8.4 °F 1014.8 in NNE 3.2 mph 4.8 mph 59 % 0.0 in
01:25 16.3 °F 8.3 °F 1014.8 in NE 1.6 mph 4.8 mph 59 % 0.0 in
01:35 16.4 °F 8.1 °F 1014.8 in NE 3.2 mph 3.2 mph 58 % 0.0 in
01:45 16.4 °F 8.1 °F 1014.8 in NNE 1.6 mph 3.2 mph 58 % 0.0 in
01:55 16.2 °F 7.9 °F 1014.8 in NE 3.2 mph 4.8 mph 58 % 0.0 in
02:05 16.1 °F 7.8 °F 1014.8 in NE 3.2 mph 3.2 mph 58 % 0.0 in
02:15 16.2 °F 8.4 °F 1015.8 in NNW 4.8 mph 4.8 mph 60 % 0.0 in
02:25 16.4 °F 8.6 °F 1014.8 in NNE 1.6 mph 4.8 mph 60 % 0.0 in
02:35 16.2 °F 8.7 °F 1014.8 in NNE 3.2 mph 4.8 mph 61 % 0.0 in
02:45 16.1 °F 8.8 °F 1015.8 in Calm   4.8 mph 62 % 0.0 in
02:55 16.3 °F 9.0 °F 1015.8 in SSE 3.2 mph 4.8 mph 62 % 0.0 in
03:05 16.3 °F 9.0 °F 1015.8 in Calm   3.2 mph 62 % 0.0 in
03:15 16.3 °F 9.2 °F 1015.8 in NNE 1.6 mph 3.2 mph 63 % 0.0 in
03:25 15.9 °F 9.6 °F 1015.8 in NNE 4.8 mph 6.4 mph 66 % 0.0 in
03:35 15.6 °F 9.9 °F 1015.8 in NNE 4.8 mph 6.4 mph 69 % 0.0 in
03:45 15.5 °F 10.1 °F 1015.8 in NE 8.0 mph 9.7 mph 70 % 0.0 in
03:55 15.5 °F 11.3 °F 1015.8 in NE 11.3 mph 16.1 mph 76 % 0.0 in
04:05 15.4 °F 11.0 °F 1015.8 in NNE 1.6 mph 6.4 mph 75 % 0.0 in
04:15 15.3 °F 11.5 °F 1015.8 in NW 1.6 mph 6.4 mph 78 % 0.0 in
04:25 15.5 °F 11.7 °F 1015.8 in West 4.8 mph 6.4 mph 78 % 1.0 in
04:35 15.6 °F 11.6 °F 1015.8 in NNE 1.6 mph 4.8 mph 77 % 1.0 in
04:45 16.0 °F 11.9 °F 1015.8 in NNE 3.2 mph 4.8 mph 77 % 0.0 in
04:55 16.2 °F 12.2 °F 1015.8 in NE 3.2 mph 8.0 mph 77 % 0.0 in
05:05 16.3 °F 12.4 °F 1015.8 in NE 1.6 mph 4.8 mph 78 % 0.0 in
05:15 16.3 °F 12.3 °F 1015.8 in North 1.6 mph 9.7 mph 77 % 0.0 in
05:25 16.3 °F 12.1 °F 1015.8 in NNE 1.6 mph 3.2 mph 76 % 0.0 in
05:35 16.5 °F 12.3 °F 1015.8 in NE 3.2 mph 4.8 mph 76 % 0.0 in
05:45 17.0 °F 12.3 °F 1015.8 in NE 1.6 mph 6.4 mph 74 % 0.0 in
05:50 17.0 °F 12.3 °F 1015.8 in NE 4.8 mph 8.0 mph 74 % 0.0 in
10:51 17.0 °F 12.1 °F 1016.8 in NE 5.6 mph 6.1 mph 73 % 1.0 in
10:56 17.1 °F 12.2 °F 1016.8 in East 6.1 mph 6.1 mph 73 % 1.0 in
11:01 17.2 °F 12.3 °F 1016.8 in ENE 3.7 mph 3.7 mph 73 % 1.0 in
11:06 17.7 °F 12.8 °F 1015.8 in ENE 4.2 mph   73 % 0.0 in
11:11 17.9 °F 13.0 °F 1015.8 in ENE 5.6 mph 5.6 mph 73 % 0.0 in
11:12 18.0 °F 13.1 °F 1015.8 in NNE 4.2 mph 4.7 mph 73 % 0.0 in
11:17 18.2 °F 13.1 °F 1015.8 in NNE 7.4 mph 7.4 mph 72 % 0.0 in
11:22 18.7 °F 13.6 °F 1015.8 in ENE 5.6 mph 5.6 mph 72 % 0.0 in
11:27 18.8 °F 13.4 °F 1015.8 in WNW 9.3 mph 9.3 mph 71 % 0.0 in
11:32 19.2 °F 13.6 °F 1015.8 in NE 5.6 mph 5.6 mph 70 % 0.0 in
11:37 19.3 °F 13.4 °F 1015.8 in ENE 3.7 mph 4.2 mph 69 % 0.0 in
11:42 19.6 °F 13.8 °F 1015.8 in NNW 5.6 mph 5.6 mph 69 % 0.0 in
11:47 19.6 °F 13.6 °F 1015.8 in North 5.6 mph 5.6 mph 68 % 0.0 in
11:52 19.6 °F 13.6 °F 1015.8 in ENE 9.3 mph 9.3 mph 68 % 0.0 in
11:57 19.7 °F 13.6 °F 1015.8 in ENE 5.6 mph 5.6 mph 68 % 0.0 in
12:02 19.9 °F 13.6 °F 1015.8 in ENE 3.7 mph 3.7 mph 67 % 0.0 in
12:07 20.1 °F 13.6 °F 1015.8 in NNW 3.7 mph 3.7 mph 66 % 0.0 in
12:12 20.3 °F 13.3 °F 1015.8 in NNE 3.7 mph 3.7 mph 64 % 0.0 in
12:17 20.6 °F 13.6 °F 1015.8 in SW 6.4 mph 6.4 mph 64 % 0.0 in
12:22 20.9 °F 13.3 °F 1014.8 in WSW 5.0 mph 5.0 mph 62 % 0.0 in
12:27 20.9 °F 13.3 °F 1014.8 in NW 5.6 mph 5.6 mph 62 % 0.0 in
12:32 21.0 °F 12.9 °F 1014.8 in WSW 3.9 mph   60 % 0.0 in
12:37 21.2 °F 12.9 °F 1015.8 in West 3.7 mph 3.7 mph 59 % 0.0 in
12:42 21.3 °F 12.7 °F 1015.8 in ESE 5.6 mph 5.6 mph 58 % 0.0 in
12:46 21.2 °F 12.6 °F 1015.8 in ENE 3.7 mph 3.7 mph 58 % 0.0 in
12:51 20.9 °F 12.1 °F 1015.8 in NE 7.4 mph 7.4 mph 57 % 0.0 in
12:56 20.9 °F 11.8 °F 1015.8 in ENE 7.4 mph 7.4 mph 56 % 0.0 in
13:01 21.1 °F 12.2 °F 1015.8 in SSE 4.2 mph 4.2 mph 57 % 0.0 in
13:06 21.2 °F 12.3 °F 1015.8 in East 3.7 mph 3.7 mph 57 % 0.0 in
13:11 21.0 °F 11.9 °F 1015.8 in East 7.9 mph 7.9 mph 56 % 0.0 in
13:16 20.9 °F 12.1 °F 1015.8 in ESE 5.6 mph 5.6 mph 57 % 0.0 in
13:21 20.8 °F 11.7 °F 1015.8 in ENE 5.6 mph 5.6 mph 56 % 0.0 in
13:26 20.8 °F 11.4 °F 1015.8 in East 7.4 mph 7.4 mph 55 % 0.0 in
13:31 20.9 °F 10.9 °F 1015.8 in ESE 9.3 mph 9.3 mph 53 % 0.0 in
13:36 20.9 °F 11.2 °F 1015.8 in NE 7.4 mph 7.4 mph 54 % 0.0 in
13:41 20.9 °F 10.9 °F 1015.8 in East 11.1 mph 11.1 mph 53 % 0.0 in
13:46 21.1 °F 11.2 °F 1015.8 in SE 7.4 mph 7.4 mph 53 % 0.0 in
13:51 21.2 °F 10.9 °F 1015.8 in East 9.3 mph 9.3 mph 52 % 0.0 in
13:56 21.4 °F 11.1 °F 1015.8 in SSE 7.4 mph 7.4 mph 52 % 0.0 in
14:01 21.8 °F 11.5 °F 1015.8 in ESE 6.4 mph 6.4 mph 52 % 0.0 in
14:06 21.6 °F 11.0 °F 1016.8 in SSE 11.1 mph 11.1 mph 51 % 0.0 in
14:11 21.5 °F 10.6 °F 1016.8 in East 9.3 mph 9.3 mph 50 % 0.0 in
14:16 21.5 °F 10.6 °F 1016.8 in East 14.8 mph 14.8 mph 50 % 0.0 in
14:21 21.4 °F 10.2 °F 1016.8 in ESE 13.0 mph 13.0 mph 49 % 0.0 in
14:26 21.3 °F 10.4 °F 1016.8 in East 9.3 mph 9.3 mph 50 % 0.0 in
14:31 21.4 °F 10.6 °F 1016.8 in East 9.3 mph 9.3 mph 50 % 0.0 in
14:36 21.5 °F 10.6 °F 1016.8 in East 9.3 mph 9.3 mph 50 % 0.0 in
14:41 21.6 °F 11.0 °F 1016.8 in ESE 6.1 mph 6.1 mph 51 % 0.0 in
14:46 21.7 °F 10.8 °F 1016.8 in SE 9.3 mph 9.3 mph 50 % 0.0 in
14:51 21.9 °F 11.3 °F 1016.8 in SSE 5.6 mph 5.6 mph 51 % 0.0 in
14:56 22.0 °F 11.1 °F 1016.8 in SE 9.3 mph 9.3 mph 50 % 0.0 in
15:01 22.0 °F 11.1 °F 1016.8 in SE 9.3 mph 9.3 mph 50 % 0.0 in
15:06 21.8 °F 10.9 °F 1016.8 in SW 9.3 mph 9.3 mph 50 % 0.0 in
15:11 21.5 °F 10.3 °F 1016.8 in East 7.4 mph 7.4 mph 49 % 0.0 in
15:16 21.5 °F 10.3 °F 1016.8 in SE 7.4 mph 7.4 mph 49 % 0.0 in
15:21 21.8 °F 10.9 °F 1016.8 in ESE 3.9 mph 3.9 mph 50 % 0.0 in
15:26 21.7 °F 10.5 °F 1016.8 in ESE 8.7 mph 8.7 mph 49 % 0.0 in
15:31 21.6 °F 10.4 °F 1016.8 in East 5.6 mph 5.6 mph 49 % 0.0 in
15:36 21.8 °F 10.6 °F 1016.8 in SSE 3.9 mph 3.9 mph 49 % 0.0 in
15:41 22.2 °F 11.3 °F 1016.8 in SW 5.6 mph 5.6 mph 50 % 0.0 in
15:46 22.3 °F 11.4 °F 1016.8 in East 3.9 mph   50 % 0.0 in
15:52 22.1 °F 10.9 °F 1016.8 in NE 7.4 mph 7.4 mph 49 % 0.0 in
15:57 22.1 °F 10.9 °F 1016.8 in NE 5.6 mph 5.6 mph 49 % 0.0 in
16:02 22.1 °F 10.9 °F 1016.8 in NE 5.0 mph 5.0 mph 49 % 0.0 in
16:07 22.0 °F 10.8 °F 1015.8 in ENE 5.6 mph 5.6 mph 49 % 0.0 in
16:12 22.0 °F 10.8 °F 1015.8 in ESE 11.1 mph 11.1 mph 49 % 0.0 in
16:17 22.0 °F 10.8 °F 1015.8 in ESE 9.3 mph 9.3 mph 49 % 0.0 in
16:22 22.4 °F 11.2 °F 1016.8 in SE 3.7 mph 3.7 mph 49 % 0.0 in
16:27 22.7 °F 11.4 °F 1016.8 in SSE 3.2 mph 3.2 mph 49 % 0.0 in
16:32 22.6 °F 11.3 °F 1016.8 in ESE 3.7 mph 3.7 mph 49 % 0.0 in
16:37 22.4 °F 11.2 °F 1016.8 in NNE 12.2 mph 12.2 mph 49 % 0.0 in
16:42 22.3 °F 11.1 °F 1016.8 in ENE 7.4 mph 7.4 mph 49 % 0.0 in
16:47 22.3 °F 11.1 °F 1016.8 in NNE 9.3 mph 9.3 mph 49 % 0.0 in
16:52 22.2 °F 11.0 °F 1016.8 in NE 9.3 mph 9.3 mph 49 % 0.0 in
16:57 22.2 °F 10.7 °F 1016.8 in NNE 9.3 mph 9.3 mph 48 % 0.0 in
17:02 22.2 °F 10.7 °F 1016.8 in NE 9.5 mph 9.5 mph 48 % 0.0 in
17:07 22.3 °F 10.4 °F 1015.8 in East 7.4 mph 7.4 mph 47 % 0.0 in
17:12 22.2 °F 10.3 °F 1015.8 in East 9.3 mph 9.3 mph 47 % 0.0 in
17:17 22.3 °F 10.4 °F 1015.8 in NE 7.9 mph 7.9 mph 47 % 0.0 in
17:22 22.3 °F 10.4 °F 1016.8 in NE 9.3 mph 9.3 mph 47 % 0.0 in
17:27 22.1 °F 10.3 °F 1016.8 in ESE 7.4 mph 7.4 mph 47 % 0.0 in
17:32 22.1 °F 9.9 °F 1016.8 in ESE 13.0 mph 13.0 mph 46 % 0.0 in
17:37 22.1 °F 9.9 °F 1016.8 in SSE 9.3 mph 9.3 mph 46 % 0.0 in
17:42 22.2 °F 10.0 °F 1016.8 in NE 13.0 mph 13.0 mph 46 % 0.0 in
17:47 22.2 °F 10.3 °F 1016.8 in East 5.6 mph 5.6 mph 47 % 0.0 in
17:52 22.3 °F 10.1 °F 1016.8 in East 7.4 mph 7.4 mph 46 % 0.0 in
17:57 22.4 °F 10.6 °F 1016.8 in ESE 3.7 mph 3.7 mph 47 % 0.0 in
18:02 22.4 °F 10.2 °F 1016.8 in ENE 3.9 mph 3.9 mph 46 % 0.0 in
18:07 22.5 °F 10.3 °F 1016.8 in NNE 5.6 mph 5.6 mph 46 % 0.0 in
18:12 22.5 °F 10.3 °F 1016.8 in ENE 5.6 mph 5.6 mph 46 % 0.0 in
18:17 22.6 °F 10.4 °F 1016.8 in NE 9.3 mph 9.3 mph 46 % 0.0 in
18:22 22.6 °F 10.4 °F 1015.8 in ESE 11.1 mph 11.1 mph 46 % 0.0 in
18:27 22.5 °F 10.3 °F 1015.8 in NNE 9.3 mph 9.3 mph 46 % 0.0 in
18:32 22.5 °F 10.3 °F 1015.8 in ENE 7.4 mph 7.4 mph 46 % 0.0 in
18:37 22.4 °F 10.2 °F 1015.8 in ESE 7.4 mph 7.4 mph 46 % 0.0 in
18:42 22.3 °F 9.8 °F 1015.8 in East 9.3 mph 9.3 mph 45 % 0.0 in
18:47 22.3 °F 9.8 °F 1015.8 in ESE 7.4 mph 7.4 mph 45 % 0.0 in
18:52 22.3 °F 10.1 °F 1015.8 in ENE 9.5 mph 9.5 mph 46 % 0.0 in
18:57 22.4 °F 9.9 °F 1015.8 in ENE 7.4 mph 7.4 mph 45 % 0.0 in
19:02 22.4 °F 9.9 °F 1015.8 in ENE 7.4 mph 7.4 mph 45 % 0.0 in
19:07 22.4 °F 9.9 °F 1015.8 in East 9.3 mph 9.3 mph 45 % 0.0 in
19:12 22.4 °F 9.6 °F 1015.8 in NNE 9.3 mph 9.3 mph 44 % 0.0 in
19:15 17.6 °F 9.0 °F 1017.8 in Calm   3.2 mph 57 % 0.0 in
19:17 22.5 °F 9.6 °F 1015.8 in ENE 10.3 mph 10.3 mph 44 % 0.0 in
19:22 22.5 °F 9.6 °F 1015.8 in ESE 7.4 mph 7.4 mph 44 % 0.0 in
19:25 17.6 °F 9.2 °F 1016.8 in Calm     58 % 0.0 in
19:27 22.4 °F 9.6 °F 1015.8 in ENE 9.3 mph 9.3 mph 44 % 0.0 in
19:32 22.4 °F 9.6 °F 1015.8 in ESE 7.9 mph 7.9 mph 44 % 0.0 in
19:35 17.4 °F 9.1 °F 1016.8 in Calm     58 % 0.0 in
19:37 22.3 °F 9.4 °F 1014.8 in East 11.1 mph 11.1 mph 44 % 0.0 in
19:42 22.3 °F 9.4 °F 1014.8 in ENE 13.0 mph 13.0 mph 44 % 0.0 in
19:45 17.0 °F 8.9 °F 1017.8 in WSW 3.2 mph 3.2 mph 59 % 0.0 in
19:47 22.3 °F 9.1 °F 1014.8 in East 14.8 mph 14.8 mph 43 % 0.0 in
19:52 22.2 °F 9.0 °F 1015.8 in SE 7.4 mph 7.4 mph 43 % 0.0 in
19:55 16.9 °F 9.3 °F 1017.8 in Calm   4.8 mph 61 % 0.0 in
19:57 22.1 °F 8.9 °F 1015.8 in ESE 11.1 mph 11.1 mph 43 % 0.0 in
20:02 22.1 °F 8.9 °F 1015.8 in ESE 13.0 mph 13.0 mph 43 % 0.0 in
20:05 16.9 °F 9.3 °F 1017.8 in Calm   1.6 mph 61 % 0.0 in
20:07 22.0 °F 8.8 °F 1015.8 in ENE 11.1 mph 11.1 mph 43 % 0.0 in
20:12 22.0 °F 8.8 °F 1015.8 in ESE 9.3 mph 9.3 mph 43 % 0.0 in
20:15 16.9 °F 9.6 °F 1017.8 in Calm     62 % 0.0 in
20:17 21.9 °F 8.7 °F 1015.8 in ESE 9.3 mph 9.3 mph 43 % 0.0 in
20:22 21.7 °F 8.9 °F 1015.8 in ESE 7.4 mph 7.4 mph 44 % 0.0 in
20:24 21.7 °F 8.6 °F 1015.8 in East 9.3 mph 9.3 mph 43 % 0.0 in
20:25 16.8 °F 9.5 °F 1017.8 in Calm     62 % 0.0 in
20:29 21.5 °F 8.7 °F 1015.8 in ESE 7.4 mph 7.4 mph 44 % 0.0 in
20:34 21.4 °F 8.6 °F 1015.8 in ENE 3.7 mph 3.7 mph 44 % 0.0 in
20:35 16.6 °F 9.5 °F 1017.8 in Calm   1.6 mph 63 % 0.0 in
20:39 21.3 °F 8.6 °F 1015.8 in East 9.3 mph 9.3 mph 44 % 0.0 in
20:44 21.2 °F 8.8 °F 1015.8 in East 9.3 mph 9.3 mph 45 % 0.0 in
20:45 16.6 °F 9.5 °F 1016.8 in Calm   1.6 mph 63 % 0.0 in
20:49 21.1 °F 8.7 °F 1015.8 in SE 9.3 mph 9.3 mph 45 % 0.0 in
20:54 21.0 °F 8.6 °F 1015.8 in ESE 5.0 mph 5.0 mph 45 % 0.0 in
20:55 16.7 °F 9.6 °F 1017.8 in Calm   3.2 mph 63 % 0.0 in
20:59 20.9 °F 8.8 °F 1015.8 in SSE 5.6 mph 5.6 mph 46 % 0.0 in
21:04 20.7 °F 8.7 °F 1015.8 in SE 6.4 mph 6.4 mph 46 % 0.0 in
21:05 16.6 °F 9.5 °F 1017.8 in NNW 1.6 mph 3.2 mph 63 % 0.0 in
21:09 20.6 °F 8.6 °F 1015.8 in ESE 5.6 mph 5.6 mph 46 % 0.0 in
21:14 20.5 °F 8.5 °F 1015.8 in SSE 7.4 mph 7.4 mph 46 % 0.0 in
21:15 17.1 °F 9.5 °F 1017.8 in NNW 3.2 mph 4.8 mph 61 % 0.0 in
21:19 20.4 °F 8.4 °F 1015.8 in ESE 5.6 mph 5.6 mph 46 % 0.0 in
21:24 20.3 °F 8.3 °F 1015.8 in Calm     46 % 0.0 in
21:25 17.1 °F 9.5 °F 1017.8 in NNE 3.2 mph 4.8 mph 61 % 0.0 in
21:29 20.2 °F 8.5 °F 1015.8 in ENE 1.9 mph 2.3 mph 47 % 0.0 in
21:34 20.1 °F 8.4 °F 1015.8 in ENE 3.7 mph 3.7 mph 47 % 0.0 in
21:35 17.1 °F 9.5 °F 1017.8 in NE 3.2 mph 4.8 mph 61 % 0.0 in
21:39 20.0 °F 8.3 °F 1015.8 in NNE 1.9 mph 1.9 mph 47 % 0.0 in
21:44 19.9 °F 8.6 °F 1015.8 in NNE 3.7 mph 3.7 mph 48 % 0.0 in
21:45 17.2 °F 9.8 °F 1017.8 in NNE 4.8 mph 9.7 mph 62 % 0.0 in
21:49 19.7 °F 8.4 °F 1015.8 in NNE 2.3 mph 2.3 mph 48 % 0.0 in
21:54 19.6 °F 8.3 °F 1015.8 in NNE 3.7 mph 3.7 mph 48 % 0.0 in
21:55 17.1 °F 10.0 °F 1017.8 in NNE 8.0 mph 8.0 mph 63 % 0.0 in
21:59 19.5 °F 8.2 °F 1015.8 in Calm     48 % 0.0 in
22:04 19.4 °F 8.1 °F 1015.8 in NNE 1.4 mph   48 % 0.0 in
22:05 17.0 °F 9.9 °F 1017.8 in NE 8.0 mph 9.7 mph 63 % 0.0 in
22:09 19.2 °F 8.2 °F 1016.8 in Calm     49 % 0.0 in
22:14 19.0 °F 8.1 °F 1016.8 in North 1.9 mph   49 % 0.0 in
22:15 17.0 °F 9.9 °F 1017.8 in NE 8.0 mph 8.0 mph 63 % 0.0 in
22:19 18.9 °F 8.2 °F 1016.8 in Calm     50 % 0.0 in
22:24 18.8 °F 8.2 °F 1017.8 in Calm     50 % 0.0 in
22:25 16.9 °F 10.1 °F 1017.8 in NE 4.8 mph 8.0 mph 64 % 0.0 in
22:29 18.7 °F 8.1 °F 1017.8 in NNE 3.7 mph 3.7 mph 50 % 0.0 in
22:34 18.8 °F 8.4 °F 1017.8 in NNE 5.6 mph 5.6 mph 51 % 0.0 in
22:35 16.8 °F 9.9 °F 1017.8 in NNE 3.2 mph 9.7 mph 64 % 0.0 in
22:39 18.9 °F 8.6 °F 1017.8 in NNE 3.7 mph 3.7 mph 51 % 0.0 in
22:44 18.9 °F 8.6 °F 1017.8 in NE 3.7 mph 3.7 mph 51 % 0.0 in
22:45 16.7 °F 9.8 °F 1017.8 in NNE 3.2 mph 8.0 mph 64 % 0.0 in
22:49 18.9 °F 8.6 °F 1017.8 in NE 3.9 mph 3.9 mph 51 % 0.0 in
22:54 18.8 °F 8.4 °F 1017.8 in NNE 5.6 mph 5.6 mph 51 % 0.0 in
22:55 16.6 °F 9.8 °F 1018.8 in NNE 3.2 mph 4.8 mph 64 % 0.0 in
22:59 18.8 °F 8.4 °F 1017.8 in NNE 3.7 mph 3.7 mph 51 % 0.0 in
23:04 18.7 °F 8.6 °F 1017.8 in NE 2.3 mph 2.3 mph 52 % 0.0 in
23:05 16.6 °F 9.8 °F 1018.8 in NE 3.2 mph 6.4 mph 64 % 0.0 in
23:09 18.6 °F 8.6 °F 1018.8 in NNE 1.9 mph 1.9 mph 52 % 0.0 in
23:14 18.5 °F 8.4 °F 1018.8 in NNW 1.4 mph   52 % 0.0 in
23:15 16.6 °F 9.5 °F 1017.8 in NNE 1.6 mph 6.4 mph 63 % 0.0 in
23:19 18.5 °F 8.7 °F 1018.8 in NNE 1.9 mph 1.9 mph 53 % 0.0 in
23:24 18.5 °F 8.7 °F 1017.8 in NE 1.9 mph   53 % 0.0 in
23:25 16.2 °F 9.4 °F 1017.8 in West 1.6 mph 4.8 mph 64 % 0.0 in
23:29 18.4 °F 8.9 °F 1017.8 in Calm     54 % 0.0 in
23:34 18.4 °F 8.9 °F 1017.8 in Calm     54 % 0.0 in
23:35 16.1 °F 9.3 °F 1017.8 in WSW 1.6 mph 3.2 mph 64 % 0.0 in
23:39 18.3 °F 8.8 °F 1016.8 in NNE 1.9 mph   54 % 0.0 in
23:44 18.2 °F 9.0 °F 1016.8 in NNE 1.9 mph   55 % 0.0 in
23:45 16.1 °F 9.3 °F 1017.8 in West 1.6 mph 3.2 mph 64 % 0.0 in
23:49 18.1 °F 8.9 °F 1016.8 in Calm     55 % 0.0 in
23:54 18.0 °F 9.1 °F 1017.8 in NW 1.9 mph   56 % 0.0 in
23:55 15.8 °F 9.2 °F 1017.8 in WSW 1.6 mph 3.2 mph 65 % 0.0 in
23:59 17.9 °F 9.0 °F 1017.8 in Calm     56 % 0.0 in
Meteo Sesrovires
Elogis d' Weather Underground - 3.75 mb

Guio original per  Jim McMurry - jmcmurry@mwt.net Adaptat per a la plantilla per  Wim van der Kuil - Leuven-Template.eu

Trobareu la nostra informacio del temps tambe a:

Weather Underground

AWEKAS